Latest Weather Observations for Cape Jaffa

IDS60801

Issued at 9:31 pm CDT Saturday 25 February 2017 (issued every 30 minutes, with the page automatically refreshed every 10 minutes)

About weather observations | Map of weather stations | Latest weather observations for SA | Other Formats
Station Details ID: 026095 Name: THE LIMESTONE Lat: -36.97 Lon: 139.72 Height: 17.0 m
Data from the previous 72 hours. | See also: Recent months at Cape Jaffa
Date/Time
CDT
Temp
°C
App
Temp
°C
Dew
Point
°C
Rel
Hum
%
Delta-T
°C
Wind Press
QNH
hPa
Press
MSL
hPa
Rain since
9am
mm
Dir  Spd
km/h
Gust
km/h
Spd
kts
Gust
kts
25/09:30pm 13.5 9.2 7.7 68 2.8 SSE 20 30 11 16 1023.9 1023.8 0.0
25/09:00pm 13.9 9.3 8.1 68 2.9 SSE 22 32 12 17 1023.6 1023.5 0.0
25/08:30pm 14.5 8.1 8.5 67 3.0 S 32 41 17 22 1023.4 1023.3 0.0
25/08:00pm 14.7 8.9 8.0 64 3.3 S 28 39 15 21 1023.4 1023.3 0.0
25/07:30pm 15.6 8.6 8.4 62 3.6 S 35 43 19 23 1023.1 1023.0 0.0
25/07:00pm 16.3 9.0 8.8 61 3.8 S 37 44 20 24 1022.8 1022.7 0.0
25/06:30pm 16.6 9.3 8.6 59 4.1 S 37 48 20 26 1022.9 1022.8 0.0
25/06:00pm 17.0 8.8 8.4 57 4.4 S 41 52 22 28 1023.0 1022.9 0.0
25/05:30pm 18.1 9.5 8.1 52 5.1 SSW 43 52 23 28 1023.0 1022.9 0.0
25/05:00pm 18.0 9.9 8.6 54 4.9 SSW 41 50 22 27 1022.9 1022.8 0.0
25/04:30pm 18.7 11.1 8.9 53 5.1 SSW 39 46 21 25 1023.3 1023.2 0.0
25/04:00pm 18.6 10.3 9.4 55 4.8 SSW 43 54 23 29 1023.7 1023.6 0.0
25/03:30pm 18.7 10.2 9.2 54 5.0 SSW 44 52 24 28 1023.9 1023.8 0.0
25/03:00pm 18.9 10.2 8.3 50 5.4 S 44 54 24 29 1024.0 1023.9 0.0
25/02:30pm 19.5 11.0 9.1 51 5.4 SSW 44 54 24 29 1024.2 1024.1 0.0
25/02:00pm 19.4 11.2 9.6 53 5.2 SSW 43 50 23 27 1024.5 1024.4 0.0
25/01:30pm 19.6 11.9 8.6 49 5.7 SSW 39 48 21 26 1024.5 1024.4 0.0
25/01:00pm 19.6 12.8 9.2 51 5.5 SSW 35 44 19 24 1024.9 1024.8 0.0
25/12:30pm 19.1 13.2 10.4 57 4.7 SSW 32 39 17 21 1025.4 1025.3 0.0
25/12:00pm 18.9 14.9 10.5 58 4.5 SSW 22 28 12 15 1025.7 1025.6 0.0
25/11:30am 18.1 14.5 9.7 58 4.4 SSE 19 43 10 23 1026.3 1026.2 0.0
25/11:00am 18.1 13.8 9.2 56 4.7 S 22 32 12 17 1026.4 1026.3 0.0
25/10:30am 19.0 15.5 8.6 51 5.4 SSE 17 24 9 13 1026.4 1026.3 0.0
25/10:00am 17.4 14.2 10.1 62 3.9 SSE 17 22 9 12 1026.6 1026.5 0.0
25/09:30am 16.4 12.4 8.9 61 3.8 SSE 20 32 11 17 1026.4 1026.3 0.0
25/09:00am 17.7 14.0 10.3 62 3.9 SSE 20 30 11 16 1026.4 1026.3 0.0
25/08:30am 16.4 13.2 10.0 66 3.3 SSE 17 26 9 14 1026.4 1026.3 0.0
25/08:00am 15.0 13.5 10.4 74 2.4 SSE 9 15 5 8 1026.4 1026.3 0.0
25/07:30am 14.5 12.9 10.1 75 2.3 SSE 9 13 5 7 1026.3 1026.2 0.0
25/07:00am 14.1 12.7 9.7 75 2.3 SSE 7 9 4 5 1026.3 1026.2 0.0
25/06:30am 14.3 12.2 9.7 74 2.4 SE 11 17 6 9 1025.8 1025.7 0.0
25/06:00am 14.6 12.8 9.6 72 2.6 SSE 9 15 5 8 1025.7 1025.6 0.0
25/05:30am 14.6 12.8 9.6 72 2.6 SSE 9 13 5 7 1025.8 1025.7 0.0
25/05:00am 14.9 12.8 9.7 71 2.7 SSE 11 19 6 10 1025.8 1025.7 0.0
25/04:30am 15.0 12.5 9.8 71 2.7 SE 13 19 7 10 1025.7 1025.6 0.0
25/04:00am 14.5 12.2 10.3 76 2.2 SE 13 19 7 10 1025.5 1025.4 0.0
25/03:30am 13.7 12.2 10.7 82 1.6 SE 9 15 5 8 1025.6 1025.5 0.0
25/03:00am 13.1 11.2 10.5 84 1.3 SSE 11 15 6 8 1025.9 1025.8 0.0
25/02:30am 13.0 10.6 10.0 82 1.5 SSE 13 17 7 9 1026.0 1025.9 0.0
25/02:00am 12.9 11.2 9.9 82 1.5 SSE 9 11 5 6 1026.2 1026.1 0.0
25/01:30am 12.8 11.4 9.6 81 1.6 SSE 7 9 4 5 1026.5 1026.4 0.0
25/01:00am 13.9 11.9 10.1 78 2.0 SSE 11 15 6 8 1026.7 1026.6 0.0
25/12:30am 13.5 11.9 10.3 81 1.7 SSE 9 13 5 7 1026.9 1026.8 0.0
25/12:00am 13.7 11.4 10.3 80 1.8 SSE 13 17 7 9 1027.0 1026.9 0.0
 
Date/Time
CDT
Temp
°C
App
Temp
°C
Dew
Point
°C
Rel
Hum
%
Delta-T
°C
Wind Press
QNH
hPa
Press
MSL
hPa
Rain since
9am
mm
Dir  Spd
km/h
Gust
km/h
Spd
kts
Gust
kts
24/11:30pm 13.4 10.6 10.0 80 1.7 SSE 15 19 8 10 1026.8 1026.7 0.0
24/11:00pm 13.5 11.1 10.1 80 1.8 SSE 13 17 7 9 1027.0 1026.9 0.0
24/10:30pm 14.3 11.6 10.3 77 2.1 SSE 15 20 8 11 1027.1 1027.0 0.0
24/10:00pm 15.0 11.6 10.4 74 2.4 S 19 26 10 14 1027.1 1027.0 0.0
24/09:30pm 15.0 11.4 10.4 74 2.4 S 20 28 11 15 1026.9 1026.8 0.0
24/09:00pm 15.4 11.4 10.4 72 2.6 S 22 30 12 16 1026.7 1026.6 0.0
24/08:30pm 15.5 11.0 10.1 70 2.8 S 24 30 13 16 1026.7 1026.6 0.0
24/08:00pm 15.8 10.7 9.2 65 3.4 S 26 32 14 17 1026.3 1026.2 0.0
24/07:30pm 16.7 11.5 10.3 66 3.4 S 28 35 15 19 1026.1 1026.0 0.0
24/07:00pm 17.4 12.1 11.2 67 3.4 SSW 30 35 16 19 1026.0 1025.9 0.0
24/06:30pm 17.9 12.9 11.0 64 3.7 SSW 28 33 15 18 1025.9 1025.8 0.0
24/06:00pm 18.8 12.8 10.9 60 4.3 S 33 39 18 21 1025.8 1025.7 0.0
24/05:30pm 19.0 12.9 10.6 58 4.5 S 33 41 18 22 1025.8 1025.7 0.0
24/05:00pm 18.7 13.1 10.3 58 4.5 S 30 37 16 20 1025.7 1025.6 0.0
24/04:30pm 19.4 13.9 10.4 56 4.8 SSW 30 37 16 20 1025.9 1025.8 0.0
24/04:00pm 18.9 13.1 9.4 54 5.0 SSW 30 39 16 21 1025.8 1025.7 0.0
24/03:30pm 19.1 12.7 9.3 53 5.1 S 33 41 18 22 1025.9 1025.8 0.0
24/03:00pm 19.9 13.7 9.5 51 5.5 SSW 32 39 17 21 1026.1 1026.0 0.0
24/02:30pm 20.2 14.0 9.2 49 5.8 S 32 37 17 20 1026.4 1026.3 0.0
24/02:00pm 19.9 14.4 10.6 55 5.0 S 30 35 16 19 1026.6 1026.5 0.0
24/01:30pm 18.4 13.4 11.0 62 4.0 SSW 28 41 15 22 1026.8 1026.7 0.0
24/01:00pm 18.9 14.4 10.2 57 4.7 SSW 24 32 13 17 1026.8 1026.7 0.0
24/12:30pm 19.6 15.4 9.8 53 5.2 SSW 22 28 12 15 1026.9 1026.8 0.0
24/12:00pm 19.2 14.6 9.7 54 5.0 SSW 24 33 13 18 1027.1 1027.0 0.0
24/11:30am 18.7 14.3 8.9 53 5.1 S 22 28 12 15 1027.1 1027.0 0.0
24/11:00am 18.7 14.2 8.7 52 5.2 SSW 22 30 12 16 1027.3 1027.2 0.0
24/10:30am 18.6 13.3 8.6 52 5.2 SSW 26 32 14 17 1027.1 1027.0 0.0
24/10:00am 18.2 12.6 8.7 54 4.9 SSW 28 35 15 19 1027.0 1026.9 0.0
24/09:30am 18.0 13.9 8.6 54 4.8 SSW 20 28 11 15 1026.8 1026.7 0.0
24/09:00am 17.4 12.6 8.8 57 4.4 SSW 24 30 13 16 1026.6 1026.5 0.0
24/08:30am 17.2 13.4 8.9 58 4.3 SSW 19 24 10 13 1026.2 1026.1 0.0
24/08:00am 16.8 12.2 8.2 57 4.4 SSW 22 32 12 17 1026.1 1026.0 0.0
24/07:30am 16.5 12.2 9.2 62 3.8 SSW 22 28 12 15 1025.5 1025.4 0.0
24/07:00am 16.4 12.4 9.1 62 3.8 SW 20 26 11 14 1025.3 1025.2 0.0
24/06:30am 16.3 12.7 8.5 60 4.0 SSW 17 24 9 13 1025.0 1024.9 0.0
24/06:00am 15.9 13.0 8.2 60 3.9 SSW 13 19 7 10 1024.8 1024.7 0.0
24/05:30am 15.7 11.5 7.5 58 4.1 S 19 24 10 13 1024.6 1024.5 0.0
24/05:00am 15.9 10.5 7.9 59 4.0 SSW 26 33 14 18 1024.4 1024.3 0.0
24/04:30am 16.1 11.5 8.3 60 3.9 SSW 22 30 12 16 1024.1 1024.0 0.0
24/04:00am 16.1 12.2 8.8 62 3.7 SW 19 24 10 13 1024.1 1024.0 0.0
24/03:30am 16.0 12.9 8.7 62 3.7 SW 15 19 8 10 1024.2 1024.1 0.0
24/03:00am 16.2 12.7 8.7 61 3.8 SW 17 22 9 12 1024.2 1024.1 0.0
24/02:30am 16.1 12.8 8.1 59 4.0 SSW 15 19 8 10 1024.3 1024.2 0.0
24/02:00am 16.1 13.2 8.1 59 4.0 SSW 13 17 7 9 1024.4 1024.3 0.0
24/01:30am 16.1 13.1 7.8 58 4.1 SSW 13 20 7 11 1024.6 1024.5 0.0
24/01:00am 16.1 12.7 7.8 58 4.2 S 15 24 8 13 1024.6 1024.5 0.0
24/12:30am 15.9 11.8 7.9 59 4.0 SSW 19 24 10 13 1024.7 1024.6 0.0
24/12:00am 16.2 12.2 8.2 59 4.0 SSW 19 26 10 14 1024.7 1024.6 0.0
 
Date/Time
CDT
Temp
°C
App
Temp
°C
Dew
Point
°C
Rel
Hum
%
Delta-T
°C
Wind Press
QNH
hPa
Press
MSL
hPa
Rain since
9am
mm
Dir  Spd
km/h
Gust
km/h
Spd
kts
Gust
kts
23/11:30pm 16.1 12.8 9.5 65 3.4 SSW 17 20 9 11 1024.7 1024.6 0.0
23/11:00pm 15.8 12.4 9.0 64 3.5 SSW 17 19 9 10 1024.7 1024.6 0.0
23/10:30pm 15.7 13.2 8.4 62 3.7 SW 11 15 6 8 1024.6 1024.5 0.0
23/10:00pm 14.9 11.6 7.9 63 3.5 SW 15 20 8 11 1024.5 1024.4 0.0
23/09:30pm 16.3 13.1 8.5 60 4.0 SW 15 22 8 12 1024.3 1024.2 0.0
23/09:00pm 16.5 13.0 8.7 60 4.0 SW 17 22 9 12 1023.9 1023.8 0.0
23/08:30pm 16.4 13.1 9.6 64 3.5 SSW 17 20 9 11 1023.5 1023.4 0.0
23/08:00pm 16.4 13.4 9.3 63 3.7 SSW 15 20 8 11 1023.1 1023.0 0.0
23/07:30pm 16.6 12.7 9.3 62 3.8 SSW 20 26 11 14 1022.6 1022.5 0.0
23/07:00pm 17.0 12.7 9.2 60 4.1 SSW 22 24 12 13 1022.4 1022.3 0.0
23/06:30pm 17.2 13.0 9.6 61 4.0 SSW 22 28 12 15 1022.1 1022.0 0.0
23/06:00pm 17.6 13.1 10.2 62 3.9 SSW 24 30 13 16 1021.9 1021.8 0.0
23/05:30pm 17.6 13.7 10.7 64 3.7 SSW 22 26 12 14 1021.8 1021.7 0.0
23/05:00pm 18.0 14.1 10.9 63 3.8 SSW 22 26 12 14 1021.5 1021.4 0.0
23/04:30pm 18.5 16.1 11.3 63 3.9 SSW 15 19 8 10 1021.3 1021.2 0.0
23/04:00pm 19.1 16.7 11.4 61 4.2 WSW 15 22 8 12 1021.2 1021.1 0.0
23/03:30pm 19.9 17.0 11.1 57 4.8 WSW 17 24 9 13 1021.1 1021.0 0.0
23/03:00pm 19.8 16.8 10.5 55 5.0 WSW 17 24 9 13 1021.3 1021.2 0.0
23/02:30pm 18.7 16.3 11.5 63 3.9 SW 15 20 8 11 1021.3 1021.2 0.0
23/02:00pm 18.9 16.1 11.2 61 4.2 SW 17 20 9 11 1021.1 1021.0 0.0
23/01:30pm 18.9 16.6 11.7 63 4.0 SW 15 20 8 11 1020.9 1020.8 0.0
23/01:00pm 18.3 15.9 11.4 64 3.8 SW 15 22 8 12 1020.9 1020.8 0.0
23/12:30pm 18.6 16.4 12.1 66 3.6 SSW 15 20 8 11 1020.8 1020.7 0.0
23/12:00pm 18.3 15.9 11.4 64 3.8 WSW 15 20 8 11 1020.7 1020.6 0.0
23/11:30am 18.4 16.5 11.9 66 3.6 SW 13 19 7 10 1020.7 1020.6 0.0
23/11:00am 17.9 14.8 11.7 67 3.4 SW 19 22 10 12 1020.5 1020.4 0.0
23/10:30am 17.5 13.8 11.5 68 3.3 SW 22 30 12 16 1020.3 1020.2 0.0
23/10:00am 17.5 13.2 12.2 71 2.9 WSW 26 33 14 18 1019.6 1019.5 0.0
23/09:30am 17.3 12.8 12.6 74 2.6 WSW 28 35 15 19 1019.0 1018.9 0.0
23/09:00am 17.0 12.1 12.5 75 2.5 SW 30 37 16 20 1018.5 1018.4 0.0
23/08:30am 17.0 13.4 13.1 78 2.2 WSW 24 33 13 18 1018.3 1018.2 0.0
23/08:00am 16.6 12.3 13.1 80 2.0 SW 28 37 15 20 1017.7 1017.6 0.0
23/07:30am 16.3 12.5 13.6 84 1.5 WSW 26 35 14 19 1017.1 1017.0 0.0
23/07:00am 16.1 11.8 13.2 83 1.6 WSW 28 33 15 18 1016.8 1016.7 0.0
23/06:30am 16.1 11.0 13.2 83 1.6 WSW 32 41 17 22 1016.0 1015.9 0.0
23/06:00am 16.1 11.9 13.4 84 1.5 WSW 28 39 15 21 1015.7 1015.6 0.0
23/05:30am 16.1 10.6 13.6 85 1.4 WSW 35 44 19 24 1015.3 1015.2 0.0
23/05:00am 16.4 12.3 13.9 85 1.4 WSW 28 41 15 22 1014.9 1014.8 0.0
23/04:30am 16.3 11.5 14.0 86 1.3 WSW 32 44 17 24 1014.6 1014.5 0.0
23/04:00am 16.3 11.0 14.1 87 1.2 WSW 35 46 19 25 1014.1 1014.0 0.0
23/03:30am 16.9 12.9 14.2 84 1.5 WNW 28 39 15 21 1014.7 1014.6 0.0
23/03:00am 16.7 11.7 14.0 84 1.5 WNW 33 44 18 24 1014.5 1014.4 0.0
23/02:30am 16.9 12.0 14.2 84 1.5 WNW 33 48 18 26 1014.1 1014.0 0.0
23/02:00am 17.0 12.3 14.3 84 1.5 WNW 32 46 17 25 1014.1 1014.0 0.0
23/01:30am 17.4 12.7 14.3 82 1.8 WNW 32 44 17 24 1014.1 1014.0 0.0
23/01:00am 17.5 12.6 14.2 81 1.9 WNW 33 46 18 25 1014.0 1013.9 0.0
23/12:30am 17.4 12.3 13.7 79 2.1 WNW 33 46 18 25 1013.6 1013.5 0.0
23/12:00am 17.2 12.3 14.3 83 1.7 WNW 33 44 18 24 1013.5 1013.4 0.0
 
Date/Time
CDT
Temp
°C
App
Temp
°C
Dew
Point
°C
Rel
Hum
%
Delta-T
°C
Wind Press
QNH
hPa
Press
MSL
hPa
Rain since
9am
mm
Dir  Spd
km/h
Gust
km/h
Spd
kts
Gust
kts
22/11:30pm 17.3 12.4 14.2 82 1.8 WNW 33 50 18 27 1013.2 1013.1 0.0
22/11:00pm 17.6 12.5 13.7 78 2.2 WNW 33 54 18 29 1013.1 1013.0 0.0
22/10:56pm 17.7 12.2 13.6 77 2.3 WNW 35 54 19 29 1013.1 1013.0 0.0
22/10:30pm 18.2 12.4 13.9 76 2.5 WNW 37 52 20 28 1012.8 1012.7 0.0
22/10:00pm 18.3 13.5 14.0 76 2.5 WNW 32 44 17 24 1012.6 1012.5 0.0

Other Formats:

Comma delimited format used in spreadsheet applications
http://www.bom.gov.au/fwo/IDS60801/IDS60801.94813.axf

JavaScript Object Notation format (JSON) in row-major order
http://www.bom.gov.au/fwo/IDS60801/IDS60801.94813.json